Time;durP1;ratioP1;P1;durP2;ratioP2;P2;SDS_P1;SDS_P2;PMS_P1;PMS_P2;Temp;Humidity;BMP_temperature;BMP_pressure;BME280_temperature;BME280_humidity;BME280_pressure;Samples;Min_cycle;Max_cycle;Signal;HPM_P1;HPM_P2
2021/09/13 00:02:09;;;;;;;5.82;3.35;;;;;;;;;;5039884;28;20125;-82
2021/09/13 00:04:35;;;;;;;4.65;3.20;;;;;;;;;;5052850;28;20501;-83
2021/09/13 00:07:01;;;;;;;5.97;3.65;;;;;;;;;;5038672;28;20029;-84
2021/09/13 00:09:27;;;;;;;5.18;3.50;;;;;;;;;;5041230;28;20398;-85
2021/09/13 00:11:53;;;;;;;6.15;3.15;;;;;;;;;;5042281;28;20029;-86
2021/09/13 00:14:20;;;;;;;5.97;3.38;;;15.20;99.90;;;;;;5042136;28;20029;-84
2021/09/13 00:16:46;;;;;;;5.35;3.20;;;;;;;;;;5046623;28;20034;-84
2021/09/13 00:19:12;;;;;;;5.00;3.20;;;;;;;;;;5035134;28;20053;-86
2021/09/13 00:21:38;;;;;;;4.85;3.03;;;;;;;;;;5050780;28;20021;-83
2021/09/13 00:24:04;;;;;;;5.22;3.17;;;;;;;;;;5040648;28;20375;-85
2021/09/13 00:26:30;;;;;;;5.53;3.20;;;;;;;;;;5036653;28;20478;-84
2021/09/13 00:28:56;;;;;;;6.18;3.10;;;;;;;;;;5039437;28;20044;-84
2021/09/13 00:31:22;;;;;;;6.30;3.30;;;;;;;;;;5040971;28;20398;-84
2021/09/13 00:33:48;;;;;;;5.53;3.30;;;;;;;;;;5040820;28;20056;-84
2021/09/13 00:36:14;;;;;;;4.75;3.08;;;;;;;;;;5047034;28;20028;-84
2021/09/13 00:38:40;;;;;;;6.07;3.47;;;;;;;;;;5037411;28;20057;-84
2021/09/13 00:41:06;;;;;;;6.38;3.08;;;;;;;;;;5038740;28;20513;-84
2021/09/13 00:43:32;;;;;;;4.53;2.80;;;;;;;;;;5042914;28;20049;-82
2021/09/13 00:45:58;;;;;;;5.10;3.17;;;;;;;;;;5044964;28;20029;-83
2021/09/13 00:51:00;;;;;;;9.13;3.55;;;;;;;;;;5364145;22;20053;-85
2021/09/13 00:53:26;;;;;;;4.88;3.50;;;;;;;;;;5032734;28;20112;-86
2021/09/13 00:55:54;;;;;;;4.43;3.03;;;14.90;99.90;;;;;;5033416;28;20052;-84
2021/09/13 00:58:20;;;;;;;4.10;3.10;;;;;;;;;;5037014;28;20021;-85
2021/09/13 01:00:46;;;;;;;6.07;3.25;;;;;;;;;;5045345;28;20409;-83
2021/09/13 01:03:12;;;;;;;5.40;3.08;;;;;;;;;;5056119;28;20076;-84
2021/09/13 01:05:38;;;;;;;4.05;2.95;;;;;;;;;;5041149;28;20527;-85
2021/09/13 01:08:04;;;;;;;4.22;2.97;;;;;;;;;;5039584;28;20113;-86
2021/09/13 01:10:30;;;;;;;5.68;3.25;;;;;;;;;;5044156;28;20026;-86
2021/09/13 01:12:56;;;;;;;6.35;3.03;;;;;;;;;;5039814;28;20482;-84
2021/09/13 01:15:22;;;;;;;4.97;3.10;;;;;;;;;;5038598;28;20039;-86
2021/09/13 01:17:48;;;;;;;5.30;2.92;;;;;;;;;;5039360;28;20105;-85
2021/09/13 01:20:14;;;;;;;5.78;3.45;;;;;;;;;;5037923;28;20471;-86
2021/09/13 01:22:41;;;;;;;5.57;3.15;;;;;;;;;;5056007;28;20060;-84
2021/09/13 01:25:07;;;;;;;4.88;3.33;;;;;;;;;;5039942;28;20100;-85
2021/09/13 01:27:33;;;;;;;7.07;3.67;;;;;;;;;;5040995;28;20327;-86
2021/09/13 01:29:59;;;;;;;6.65;3.30;;;;;;;;;;5039885;28;20021;-86
2021/09/13 01:32:25;;;;;;;4.18;2.92;;;;;;;;;;5038866;28;20496;-84
2021/09/13 01:34:51;;;;;;;5.28;3.35;;;;;;;;;;5055806;28;20096;-87
2021/09/13 01:37:17;;;;;;;4.68;3.33;;;;;;;;;;5047286;28;20474;-85
2021/09/13 01:39:43;;;;;;;5.38;3.30;;;14.50;99.90;;;;;;5046541;28;20083;-88
2021/09/13 01:42:09;;;;;;;5.10;2.97;;;;;;;;;;5031666;28;20052;-86
2021/09/13 01:44:35;;;;;;;5.50;3.28;;;;;;;;;;5039002;28;20081;-87
2021/09/13 01:47:01;;;;;;;4.93;2.63;;;;;;;;;;5039812;28;20026;-86
2021/09/13 01:49:27;;;;;;;5.93;3.30;;;;;;;;;;5033061;28;20026;-84
2021/09/13 01:51:54;;;;;;;5.82;3.13;;;14.40;99.90;;;;;;5039925;28;20041;-85
2021/09/13 01:54:20;;;;;;;5.43;3.10;;;;;;;;;;5056404;28;20034;-86
2021/09/13 01:56:46;;;;;;;4.60;2.85;;;;;;;;;;5040083;28;20128;-85
2021/09/13 01:59:12;;;;;;;4.10;2.90;;;;;;;;;;5038226;28;20049;-85
2021/09/13 02:01:38;;;;;;;5.97;3.38;;;;;;;;;;5040140;28;20041;-86
2021/09/13 02:04:04;;;;;;;5.20;3.17;;;;;;;;;;5039689;28;20029;-87
2021/09/13 02:06:31;;;;;;;4.80;3.10;;;14.30;99.90;;;;;;5041196;28;20029;-85
2021/09/13 02:08:57;;;;;;;6.20;3.28;;;;;;;;;;5045877;28;20045;-86
2021/09/13 02:11:23;;;;;;;5.15;2.97;;;;;;;;;;5032716;28;20078;-85
2021/09/13 02:13:49;;;;;;;8.75;3.80;;;;;;;;;;5032807;28;20025;-87
2021/09/13 02:16:15;;;;;;;6.35;3.45;;;;;;;;;;5035998;28;20082;-87
2021/09/13 02:18:41;;;;;;;5.78;3.25;;;;;;;;;;5037052;28;20045;-87
2021/09/13 02:21:08;;;;;;;4.25;3.35;;;;;;;;;;5033060;28;20137;-85
2021/09/13 02:23:34;;;;;;;8.30;3.20;;;;;;;;;;5027957;28;20029;-87
2021/09/13 02:26:00;;;;;;;4.65;3.30;;;;;;;;;;5028494;28;20033;-86
2021/09/13 02:28:26;;;;;;;5.30;3.38;;;;;;;;;;5034670;28;20064;-86
2021/09/13 02:30:52;;;;;;;5.72;3.67;;;;;;;;;;5037691;28;20037;-86
2021/09/13 02:33:18;;;;;;;5.85;3.55;;;;;;;;;;5043642;28;20099;-87
2021/09/13 02:35:44;;;;;;;9.38;3.38;;;;;;;;;;5037210;28;20130;-84
2021/09/13 02:38:10;;;;;;;6.57;3.50;;;;;;;;;;5042661;28;21115;-85
2021/09/13 02:40:36;;;;;;;5.22;3.25;;;;;;;;;;5045602;28;20040;-86
2021/09/13 02:43:02;;;;;;;5.15;2.80;;;;;;;;;;5040975;28;20038;-84
2021/09/13 02:45:28;;;;;;;4.70;3.15;;;;;;;;;;5042266;28;20088;-88
2021/09/13 02:47:54;;;;;;;6.03;2.85;;;;;;;;;;5043666;28;20064;-86
2021/09/13 02:50:20;;;;;;;6.55;3.40;;;;;;;;;;5033126;28;20041;-88
2021/09/13 02:52:46;;;;;;;6.10;3.03;;;;;;;;;;5030658;28;20263;-86
2021/09/13 02:55:12;;;;;;;4.85;3.00;;;;;;;;;;5038935;28;20087;-83
2021/09/13 02:57:38;;;;;;;4.63;3.63;;;;;;;;;;5039206;28;20037;-85
2021/09/13 03:00:04;;;;;;;5.60;3.05;;;14.20;99.90;;;;;;5039112;28;20029;-83
2021/09/13 03:02:30;;;;;;;4.78;3.08;;;;;;;;;;5033640;28;20022;-81
2021/09/13 03:04:56;;;;;;;4.05;2.78;;;;;;;;;;5033389;28;20051;-84
2021/09/13 03:07:22;;;;;;;4.35;3.10;;;;;;;;;;5040260;28;20037;-83
2021/09/13 03:09:48;;;;;;;5.43;3.50;;;;;;;;;;5062515;28;20031;-84
2021/09/13 03:12:14;;;;;;;4.50;3.33;;;;;;;;;;5042329;28;20375;-83
2021/09/13 03:14:40;;;;;;;4.88;3.00;;;;;;;;;;5037528;28;20129;-85
2021/09/13 03:17:06;;;;;;;6.13;2.90;;;;;;;;;;5039455;28;20463;-84
2021/09/13 03:19:32;;;;;;;8.00;3.63;;;;;;;;;;5037268;28;20018;-84
2021/09/13 03:21:58;;;;;;;5.05;3.10;;;;;;;;;;5037645;28;20470;-83
2021/09/13 03:24:24;;;;;;;5.32;3.08;;;;;;;;;;5033401;28;20025;-83
2021/09/13 03:26:50;;;;;;;4.03;2.78;;;;;;;;;;5043349;28;20469;-79
2021/09/13 03:29:16;;;;;;;5.07;2.88;;;;;;;;;;5063295;28;20025;-84
2021/09/13 03:31:42;;;;;;;5.68;3.25;;;;;;;;;;5043089;28;20057;-83
2021/09/13 03:34:09;;;;;;;4.85;3.08;;;;;;;;;;5040739;28;20040;-82
2021/09/13 03:36:38;;;;;;;7.05;3.28;;;;;;;;;;5041707;28;20514;-84
2021/09/13 03:39:04;;;;;;;6.50;3.25;;;;;;;;;;5039013;28;20101;-82
2021/09/13 03:41:30;;;;;;;6.13;3.35;;;;;;;;;;5036810;28;20076;-84
2021/09/13 03:43:56;;;;;;;5.00;3.13;;;;;;;;;;5031027;28;20057;-84
2021/09/13 03:46:22;;;;;;;5.45;3.42;;;;;;;;;;5041722;28;20025;-83
2021/09/13 03:48:48;;;;;;;6.68;3.70;;;;;;;;;;5041220;28;20029;-84
2021/09/13 03:51:17;;;;;;;6.63;3.90;;;;;;;;;;5039944;28;20033;-84
2021/09/13 03:53:43;;;;;;;5.32;4.20;;;;;;;;;;5037597;28;20053;-82
2021/09/13 03:56:09;;;;;;;6.25;3.95;;;;;;;;;;5038707;28;20036;-84
2021/09/13 03:58:35;;;;;;;5.47;3.95;;;;;;;;;;5045630;28;20025;-82
2021/09/13 04:01:01;;;;;;;6.75;3.70;;;;;;;;;;5041936;28;20036;-86
2021/09/13 04:03:34;;;;;;;7.97;4.00;;;;;;;;;;5045263;28;20416;-82
2021/09/13 04:06:01;;;;;;;10.10;4.18;;;;;;;;;;5037522;28;20037;-81
2021/09/13 04:13:24;;;;;;;5.82;3.58;;;;;;;;;;5040457;28;20025;-81
2021/09/13 04:15:51;;;;;;;5.72;3.45;;;;;;;;;;5039303;28;20026;-81
2021/09/13 04:18:17;;;;;;;5.40;3.55;;;;;;;;;;5038185;28;20041;-85
2021/09/13 04:20:43;;;;;;;6.95;3.78;;;;;;;;;;5035269;28;20051;-84
2021/09/13 04:23:09;;;;;;;5.30;3.60;;;;;;;;;;5034146;28;20030;-82
2021/09/13 04:25:35;;;;;;;6.60;3.67;;;;;;;;;;5033565;28;20034;-86
2021/09/13 04:28:01;;;;;;;4.68;3.50;;;;;;;;;;5036973;28;20059;-84
2021/09/13 04:30:27;;;;;;;6.75;3.40;;;;;;;;;;5033478;28;20033;-82
2021/09/13 04:32:53;;;;;;;6.90;3.90;;;;;;;;;;5042662;28;20059;-83
2021/09/13 04:35:19;;;;;;;7.28;3.78;;;;;;;;;;5043067;28;20037;-83
2021/09/13 04:37:46;;;;;;;5.15;3.58;;;;;;;;;;5040085;28;20041;-81
2021/09/13 04:40:14;;;;;;;7.07;3.75;;;;;;;;;;5037903;28;20124;-82
2021/09/13 04:42:41;;;;;;;5.45;3.35;;;14.40;99.90;;;;;;5035731;28;20052;-84
2021/09/13 04:45:08;;;;;;;5.05;3.38;;;14.40;99.90;;;;;;5041178;28;20021;-84
2021/09/13 04:47:34;;;;;;;5.65;3.40;;;;;;;;;;5039110;28;20024;-79
2021/09/13 04:50:00;;;;;;;7.03;3.78;;;;;;;;;;5036083;28;20032;-84
2021/09/13 04:52:26;;;;;;;5.95;3.78;;;;;;;;;;5041170;28;20021;-82
2021/09/13 04:54:52;;;;;;;8.68;3.35;;;;;;;;;;5039829;28;20034;-85
2021/09/13 04:57:18;;;;;;;6.57;3.50;;;;;;;;;;5037598;28;20057;-84
2021/09/13 04:59:44;;;;;;;7.28;4.20;;;;;;;;;;5041801;28;20402;-84
2021/09/13 05:02:10;;;;;;;7.10;3.47;;;;;;;;;;5032787;28;20025;-81
2021/09/13 05:04:36;;;;;;;5.53;3.53;;;;;;;;;;5040604;28;20033;-83
2021/09/13 05:07:02;;;;;;;6.10;3.45;;;;;;;;;;5043741;28;20017;-85
2021/09/13 05:09:28;;;;;;;7.95;4.15;;;;;;;;;;5036865;28;20032;-85
2021/09/13 05:11:55;;;;;;;10.80;5.15;;;14.50;99.90;;;;;;5041481;28;20041;-84
2021/09/13 05:14:21;;;;;;;7.75;3.92;;;;;;;;;;5039604;28;20090;-84
2021/09/13 05:16:47;;;;;;;8.40;4.05;;;;;;;;;;5033500;28;20124;-84
2021/09/13 05:19:13;;;;;;;8.30;3.75;;;;;;;;;;5040096;28;20044;-83
2021/09/13 05:21:40;;;;;;;8.23;3.85;;;;;;;;;;5040779;28;20108;-84
2021/09/13 05:24:06;;;;;;;5.25;3.90;;;14.40;99.90;;;;;;5053894;28;20082;-84
2021/09/13 05:26:33;;;;;;;10.45;4.05;;;;;;;;;;5037757;28;20394;-83
2021/09/13 05:28:59;;;;;;;6.85;3.90;;;;;;;;;;5039422;28;20057;-83
2021/09/13 05:31:25;;;;;;;9.55;4.30;;;;;;;;;;5033225;28;20041;-82
2021/09/13 05:33:51;;;;;;;6.78;3.85;;;;;;;;;;5037474;28;20041;-85
2021/09/13 05:36:17;;;;;;;8.50;4.15;;;;;;;;;;5036093;28;20104;-84
2021/09/13 05:38:43;;;;;;;7.40;4.43;;;;;;;;;;5043688;28;20039;-81
2021/09/13 05:41:09;;;;;;;7.00;3.58;;;;;;;;;;5034138;28;20026;-81
2021/09/13 05:43:35;;;;;;;4.82;3.45;;;;;;;;;;5046447;28;20552;-81
2021/09/13 05:46:01;;;;;;;8.00;4.95;;;;;;;;;;5037923;28;20030;-82
2021/09/13 05:48:27;;;;;;;5.65;3.85;;;;;;;;;;5041453;28;20025;-85
2021/09/13 05:50:53;;;;;;;7.65;4.30;;;;;;;;;;5034322;28;20029;-81
2021/09/13 05:53:19;;;;;;;7.93;3.92;;;;;;;;;;5037611;28;20041;-82
2021/09/13 05:55:45;;;;;;;7.65;4.80;;;;;;;;;;5035718;28;20922;-82
2021/09/13 05:58:11;;;;;;;13.35;4.32;;;14.50;99.90;;;;;;5032808;28;20025;-81
2021/09/13 06:00:37;;;;;;;8.43;4.22;;;;;;;;;;5033345;28;20030;-83
2021/09/13 06:03:05;;;;;;;8.07;4.63;;;;;;;;;;5030109;28;20021;-82
2021/09/13 06:05:31;;;;;;;8.18;3.97;;;;;;;;;;5034819;28;20045;-82
2021/09/13 06:07:57;;;;;;;5.18;3.35;;;;;;;;;;5033982;28;20038;-80
2021/09/13 06:10:23;;;;;;;7.50;4.78;;;;;;;;;;5041804;28;20048;-85
2021/09/13 06:12:49;;;;;;;7.75;4.38;;;;;;;;;;5035206;28;20029;-83
2021/09/13 06:15:15;;;;;;;11.35;4.78;;;;;;;;;;5027620;28;20505;-84
2021/09/13 06:17:41;;;;;;;9.57;4.60;;;;;;;;;;5036152;28;20032;-85
2021/09/13 06:20:07;;;;;;;9.02;4.95;;;15.00;99.90;;;;;;5038181;28;20018;-80
2021/09/13 06:22:33;;;;;;;12.65;4.47;;;;;;;;;;5040911;28;20017;-81
2021/09/13 06:24:59;;;;;;;10.57;4.15;;;;;;;;;;5039359;28;20033;-80
2021/09/13 06:27:25;;;;;;;17.30;4.32;;;;;;;;;;5042002;28;20037;-84
2021/09/13 06:29:51;;;;;;;10.30;4.40;;;;;;;;;;5055306;28;20053;-82
2021/09/13 06:32:17;;;;;;;8.65;4.10;;;;;;;;;;5048090;28;20044;-81
2021/09/13 06:34:43;;;;;;;11.65;4.85;;;;;;;;;;5039718;28;20061;-83
2021/09/13 06:37:10;;;;;;;10.05;4.60;;;;;;;;;;5040283;28;20033;-83
2021/09/13 06:39:36;;;;;;;13.40;5.28;;;;;;;;;;5041587;28;20017;-81
2021/09/13 06:42:02;;;;;;;14.25;5.50;;;;;;;;;;5034648;28;20036;-82
2021/09/13 06:44:29;;;;;;;11.55;5.40;;;;;;;;;;5039441;28;20017;-82
2021/09/13 06:47:21;;;;;;;11.45;5.13;;;;;;;;;;5036583;28;20075;-83
2021/09/13 06:49:46;;;;;;;12.55;5.25;;;;;;;;;;5039564;28;20033;-81
2021/09/13 06:52:13;;;;;;;14.52;5.25;;;;;;;;;;5043121;28;20068;-81
2021/09/13 06:54:39;;;;;;;13.30;4.75;;;;;;;;;;5042540;28;20026;-82
2021/09/13 06:57:05;;;;;;;15.60;5.25;;;;;;;;;;5036194;28;20422;-82
2021/09/13 06:59:31;;;;;;;10.20;4.93;;;;;;;;;;5042583;28;20109;-81
2021/09/13 07:01:57;;;;;;;8.45;4.95;;;;;;;;;;5038272;28;20034;-84
2021/09/13 07:04:24;;;;;;;16.83;4.53;;;;;;;;;;5037428;28;20025;-81
2021/09/13 07:06:52;;;;;;;10.50;4.13;;;;;;;;;;5041805;28;20026;-85
2021/09/13 07:09:18;;;;;;;9.98;4.05;;;;;;;;;;5035972;28;20014;-81
2021/09/13 07:11:44;;;;;;;7.18;3.65;;;;;;;;;;5039371;28;20410;-85
2021/09/13 07:14:10;;;;;;;6.80;3.65;;;;;;;;;;5040434;28;20021;-80
2021/09/13 07:16:36;;;;;;;11.00;3.53;;;;;;;;;;5041172;28;20029;-83
2021/09/13 07:19:02;;;;;;;5.28;2.80;;;;;;;;;;5036389;28;20156;-82
2021/09/13 07:21:28;;;;;;;5.18;2.63;;;;;;;;;;5046764;28;20021;-81
2021/09/13 07:23:55;;;;;;;5.63;2.72;;;;;;;;;;5036663;28;20445;-82
2021/09/13 07:26:21;;;;;;;3.90;2.40;;;;;;;;;;5039740;28;20056;-84
2021/09/13 07:28:49;;;;;;;4.50;2.38;;;;;;;;;;5037896;28;20087;-84
2021/09/13 07:31:15;;;;;;;6.53;2.60;;;;;;;;;;5039030;28;20025;-87
2021/09/13 07:33:41;;;;;;;4.65;2.50;;;;;;;;;;5045318;28;20513;-83
2021/09/13 07:36:07;;;;;;;4.28;2.67;;;;;;;;;;5023369;28;20030;-78
2021/09/13 07:38:33;;;;;;;3.78;2.20;;;;;;;;;;5041698;28;20040;-79
2021/09/13 07:40:59;;;;;;;4.93;2.38;;;;;;;;;;5037615;28;20022;-85
2021/09/13 07:43:25;;;;;;;7.13;3.30;;;;;;;;;;5042066;28;20085;-80
2021/09/13 07:45:51;;;;;;;5.72;2.60;;;;;;;;;;5045555;28;20040;-80
2021/09/13 07:48:18;;;;;;;5.95;2.70;;;;;;;;;;5046111;28;20029;-80
2021/09/13 07:50:45;;;;;;;3.78;2.10;;;;;;;;;;5046370;28;20063;-82
2021/09/13 07:53:11;;;;;;;4.65;2.60;;;;;;;;;;5035933;28;20045;-80
2021/09/13 07:55:37;;;;;;;4.90;2.25;;;;;;;;;;5042946;28;20040;-78
2021/09/13 07:58:03;;;;;;;3.88;2.20;;;;;;;;;;5043800;28;20056;-80
2021/09/13 08:00:29;;;;;;;6.72;2.30;;;;;;;;;;5044525;28;20461;-81
2021/09/13 08:02:55;;;;;;;7.53;2.40;;;;;;;;;;5046365;28;20112;-80
2021/09/13 08:05:21;;;;;;;6.75;2.60;;;;;;;;;;5040407;28;20488;-79
2021/09/13 08:07:47;;;;;;;5.40;1.98;;;;;;;;;;5039328;28;20542;-82
2021/09/13 08:10:13;;;;;;;5.85;2.30;;;;;;;;;;5040235;28;20036;-81
2021/09/13 08:12:39;;;;;;;7.32;2.97;;;;;;;;;;5042222;28;20026;-83
2021/09/13 08:15:05;;;;;;;3.35;2.10;;;;;;;;;;5044906;28;20438;-83
2021/09/13 08:17:32;;;;;;;4.25;2.17;;;;;;;;;;5043466;28;20033;-82
2021/09/13 08:19:58;;;;;;;5.13;2.20;;;;;;;;;;5041894;28;20044;-82
2021/09/13 08:22:24;;;;;;;2.97;1.90;;;;;;;;;;5042453;28;20041;-83
2021/09/13 08:24:51;;;;;;;3.92;2.45;;;;;;;;;;5045301;28;20025;-80
2021/09/13 08:27:17;;;;;;;4.32;2.45;;;;;;;;;;5041362;28;20029;-82
2021/09/13 08:29:43;;;;;;;3.83;2.28;;;;;;;;;;5041641;28;20027;-81
2021/09/13 08:32:09;;;;;;;5.47;2.47;;;;;;;;;;5040715;28;20040;-82
2021/09/13 08:34:36;;;;;;;4.57;2.45;;;;;;;;;;5037923;28;20026;-82
2021/09/13 08:37:02;;;;;;;6.97;2.50;;;;;;;;;;5035963;28;20037;-82
2021/09/13 08:39:28;;;;;;;3.00;2.30;;;;;;;;;;5036319;28;20048;-83
2021/09/13 08:41:54;;;;;;;4.57;2.30;;;;;;;;;;5037970;28;20026;-84
2021/09/13 08:44:20;;;;;;;7.63;3.03;;;;;;;;;;5039549;28;20037;-79
2021/09/13 08:46:50;;;;;;;4.82;2.60;;;;;;;;;;5044551;28;20396;-82
2021/09/13 08:49:28;;;;;;;4.72;1.92;;;20.80;93.60;;;;;;5041855;28;20028;-81
2021/09/13 08:51:55;;;;;;;6.25;2.42;;;21.10;93.40;;;;;;5053493;28;20044;-83
2021/09/13 08:54:23;;;;;;;3.95;2.00;;;;;;;;;;5038182;28;20026;-82
2021/09/13 08:56:53;;;;;;;4.57;2.33;;;;;;;;;;5041415;28;20064;-82
2021/09/13 08:59:24;;;;;;;3.03;1.80;;;;;;;;;;5049785;28;20023;-81
2021/09/13 09:01:51;;;;;;;2.80;1.90;;;21.30;92.60;;;;;;5040126;28;20030;-83
2021/09/13 09:04:17;;;;;;;5.22;2.08;;;;;;;;;;5039728;28;20033;-80
2021/09/13 09:06:44;;;;;;;4.70;1.83;;;21.60;92.10;;;;;;5039679;28;20123;-84
2021/09/13 09:09:16;;;;;;;5.72;2.22;;;21.50;92.60;;;;;;5036516;28;20026;-83
2021/09/13 09:12:01;;;;;;;5.55;2.15;;;21.50;92.30;;;;;;5033225;28;20167;-82
2021/09/13 09:14:27;;;;;;;3.50;1.85;;;;;;;;;;5030830;28;20033;-86
2021/09/13 09:16:57;;;;;;;3.05;1.60;;;21.70;91.70;;;;;;5034640;28;20519;-85
2021/09/13 09:19:23;;;;;;;3.55;1.90;;;;;;;;;;5033486;28;20108;-85
2021/09/13 09:21:49;;;;;;;4.38;2.00;;;;;;;;;;5031499;28;20490;-85
2021/09/13 09:24:16;;;;;;;5.13;1.77;;;;;;;;;;5034063;28;20021;-85
2021/09/13 09:27:01;;;;;;;4.45;1.80;;;22.10;90.80;;;;;;5028147;28;20038;-83
2021/09/13 09:29:28;;;;;;;2.83;1.80;;;22.20;90.90;;;;;;5029678;28;20395;-84
2021/09/13 09:31:57;;;;;;;4.72;1.85;;;22.20;90.70;;;;;;5029604;28;20031;-88
2021/09/13 09:34:25;;;;;;;3.10;1.70;;;22.30;90.50;;;;;;5031668;28;20029;-80
2021/09/13 09:37:12;;;;;;;3.75;1.88;;;22.40;90.50;;;;;;5031782;28;20021;-84
2021/09/13 09:39:56;;;;;;;2.47;1.65;;;22.60;90.60;;;;;;5027966;28;20404;-84
2021/09/13 09:42:32;;;;;;;6.60;2.90;;;22.60;90.20;;;;;;5030686;28;20501;-84
2021/09/13 09:44:59;;;;;;;2.78;1.80;;;22.70;89.80;;;;;;5037814;28;20021;-83
2021/09/13 09:47:25;;;;;;;2.70;1.60;;;;;;;;;;5037232;28;20064;-83
2021/09/13 09:49:54;;;;;;;3.70;1.60;;;23.00;88.80;;;;;;5052963;28;20032;-85
2021/09/13 09:52:49;;;;;;;3.25;1.63;;;23.10;87.70;;;;;;5035925;28;20049;-84
2021/09/13 09:55:20;;;;;;;5.63;2.20;;;23.00;87.80;;;;;;5028565;28;20033;-83
2021/09/13 09:58:10;;;;;;;3.25;1.60;;;22.90;87.40;;;;;;5044651;28;20026;-83
2021/09/13 10:00:37;;;;;;;2.70;1.70;;;;;;;;;;5032853;28;20026;-79
2021/09/13 10:03:04;;;;;;;3.70;1.38;;;23.10;87.00;;;;;;5029676;28;20026;-82
2021/09/13 10:05:30;;;;;;;6.10;1.73;;;;;;;;;;5031752;28;20183;-80
2021/09/13 10:07:57;;;;;;;2.92;1.60;;;;;;;;;;5038226;28;20017;-82
2021/09/13 10:10:28;;;;;;;2.85;1.60;;;;;;;;;;5036155;28;20383;-83
2021/09/13 10:12:54;;;;;;;4.57;1.77;;;;;;;;;;5036691;28;20025;-82
2021/09/13 10:15:20;;;;;;;2.63;1.50;;;;;;;;;;5036160;28;20025;-79
2021/09/13 10:17:46;;;;;;;3.90;1.55;;;;;;;;;;5030532;28;20033;-80
2021/09/13 10:20:13;;;;;;;3.90;1.75;;;;;;;;;;5035237;28;20047;-81
2021/09/13 10:22:44;;;;;;;2.60;1.58;;;23.80;83.40;;;;;;5035753;28;20036;-83
2021/09/13 10:25:11;;;;;;;2.22;1.50;;;;;;;;;;5035176;28;20466;-81
2021/09/13 10:27:38;;;;;;;2.15;1.40;;;23.80;83.20;;;;;;5036757;28;20092;-83
2021/09/13 10:30:21;;;;;;;3.30;1.60;;;23.80;82.70;;;;;;5035349;28;20026;-83
2021/09/13 10:32:49;;;;;;;3.28;1.50;;;23.70;82.80;;;;;;5034555;28;20506;-80
2021/09/13 10:35:17;;;;;;;1.77;1.30;;;23.80;81.80;;;;;;5032396;28;20032;-82
2021/09/13 10:37:43;;;;;;;2.80;1.60;;;;;;;;;;5031332;28;20075;-82
2021/09/13 10:40:25;;;;;;;4.63;1.90;;;23.90;81.30;;;;;;5031690;28;20417;-81
2021/09/13 10:42:54;;;;;;;3.75;1.48;;;24.00;81.30;;;;;;5032038;28;20072;-79
2021/09/13 10:45:20;;;;;;;3.58;1.52;;;;;;;;;;5034213;28;20029;-81
2021/09/13 10:47:49;;;;;;;4.20;1.67;;;24.20;80.20;;;;;;5033844;28;20036;-83
2021/09/13 10:50:46;;;;;;;4.03;1.70;;;24.20;79.90;;;;;;5032055;28;20055;-81
2021/09/13 10:53:18;;;;;;;4.10;2.40;;;24.40;82.00;;;;;;5039225;28;20064;-82
2021/09/13 10:55:44;;;;;;;5.68;1.67;;;;;;;;;;5051928;28;20025;-82
2021/09/13 10:58:17;;;;;;;3.17;1.60;;;24.50;79.20;;;;;;5036552;28;20033;-81
2021/09/13 11:00:43;;;;;;;4.97;2.40;;;;;;;;;;5032330;28;20032;-81
2021/09/13 11:06:06;;;;;;;3.33;1.95;;;24.40;78.40;;;;;;5033983;28;20029;-81
2021/09/13 11:08:36;;;;;;;5.17;1.77;;;24.40;79.10;;;;;;5041336;28;20406;-80
2021/09/13 11:11:02;;;;;;;2.40;1.63;;;;;;;;;;5038777;28;20091;-82
2021/09/13 11:13:28;;;;;;;3.25;1.70;;;;;;;;;;5041150;28;20029;-81
2021/09/13 11:15:54;;;;;;;3.50;1.70;;;;;;;;;;5035992;28;20120;-83
2021/09/13 11:18:43;;;;;;;7.88;2.00;;;24.60;80.40;;;;;;5037561;28;20022;-83
2021/09/13 11:21:25;;;;;;;10.38;2.58;;;24.60;78.90;;;;;;5031042;28;20479;-82
2021/09/13 11:23:51;;;;;;;5.38;1.67;;;;;;;;;;5039961;28;20029;-83
2021/09/13 11:26:19;;;;;;;3.20;1.45;;;24.70;78.00;;;;;;5032738;28;20056;-80
2021/09/13 11:29:03;;;;;;;2.25;1.55;;;24.50;77.60;;;;;;5036250;28;20100;-83
2021/09/13 11:31:33;;;;;;;8.57;2.00;;;24.40;78.70;;;;;;5043646;28;20025;-84
2021/09/13 11:33:59;;;;;;;2.75;1.50;;;;;;;;;;5047082;28;20495;-82
2021/09/13 11:36:26;;;;;;;4.00;1.50;;;24.40;78.50;;;;;;5040100;28;20087;-83
2021/09/13 11:38:57;;;;;;;3.53;1.73;;;24.60;78.70;;;;;;5042355;28;20026;-84
2021/09/13 11:41:23;;;;;;;5.25;2.78;;;;;;;;;;5038843;28;20026;-82
2021/09/13 11:44:08;;;;;;;4.90;2.00;;;24.70;78.00;;;;;;5036840;28;20116;-85
2021/09/13 11:46:58;;;;;;;5.30;2.33;;;24.70;79.20;;;;;;5038739;28;20021;-84
2021/09/13 11:49:29;;;;;;;9.30;2.55;;;24.80;78.20;;;;;;5038634;28;20026;-83
2021/09/13 11:52:17;;;;;;;6.88;1.88;;;24.90;78.10;;;;;;5033748;28;20048;-83
2021/09/13 11:55:02;;;;;;;4.18;1.70;;;25.10;77.30;;;;;;5053537;28;20387;-84
2021/09/13 11:57:32;;;;;;;3.42;1.65;;;25.00;78.00;;;;;;5042745;28;20169;-82
2021/09/13 12:00:14;;;;;;;3.30;2.17;;;25.10;78.30;;;;;;5035720;28;20018;-84
2021/09/13 12:02:46;;;;;;;2.38;1.58;;;24.90;79.00;;;;;;5045572;28;20092;-84
2021/09/13 12:05:13;;;;;;;2.58;1.52;;;24.90;79.30;;;;;;5034897;28;20038;-84
2021/09/13 12:07:39;;;;;;;2.65;1.67;;;;;;;;;;5037351;28;20092;-85
2021/09/13 12:10:07;;;;;;;6.47;2.05;;;24.90;78.70;;;;;;5040670;28;20033;-84
2021/09/13 12:12:35;;;;;;;2.58;1.55;;;24.60;79.50;;;;;;5038897;28;20453;-85
2021/09/13 12:15:04;;;;;;;6.00;1.70;;;;;;;;;;5052090;28;20056;-83
2021/09/13 12:17:39;;;;;;;7.22;2.42;;;24.70;80.20;;;;;;5038912;28;20029;-84
2021/09/13 12:20:12;;;;;;;6.68;3.67;;;24.90;80.20;;;;;;5034730;28;20030;-85
2021/09/13 12:22:38;;;;;;;4.15;1.90;;;;;;;;;;5040190;28;20021;-84
2021/09/13 12:25:15;;;;;;;5.10;1.92;;;25.10;79.70;;;;;;5041914;28;20029;-84
2021/09/13 12:28:01;;;;;;;3.00;1.70;;;24.90;80.40;;;;;;5043264;28;20052;-83
2021/09/13 12:30:29;;;;;;;3.20;1.95;;;25.10;79.70;;;;;;5041228;28;20027;-84
2021/09/13 12:32:58;;;;;;;4.18;1.60;;;25.00;80.50;;;;;;5039307;28;20026;-84
2021/09/13 12:35:37;;;;;;;6.20;2.17;;;25.20;80.10;;;;;;5034768;28;20037;-85
2021/09/13 12:38:06;;;;;;;6.63;2.50;;;25.20;79.60;;;;;;5055866;28;20056;-83
2021/09/13 12:40:58;;;;;;;2.65;1.80;;;25.30;79.50;;;;;;5042829;28;20060;-84
2021/09/13 12:43:25;;;;;;;5.07;2.50;;;25.30;78.70;;;;;;5044543;28;20022;-84
2021/09/13 12:46:21;;;;;;;6.10;1.90;;;25.10;78.80;;;;;;5040470;28;20518;-84
2021/09/13 12:48:50;;;;;;;3.03;1.80;;;25.30;79.00;;;;;;5043464;28;20037;-83
2021/09/13 12:52:04;;;;;;;2.63;1.80;;;25.40;78.60;;;;;;5039098;28;20044;-83
2021/09/13 12:54:34;;;;;;;2.38;1.55;;;;;;;;;;4982699;28;20065;-84
2021/09/13 12:57:00;;;;;;;4.53;2.10;;;;;;;;;;5003227;28;20392;-86
2021/09/13 12:59:26;;;;;;;3.38;1.80;;;;;;;;;;5021612;28;20036;-82
2021/09/13 13:01:54;;;;;;;2.88;1.80;;;25.30;78.20;;;;;;5042630;28;20026;-82
2021/09/13 13:04:21;;;;;;;3.50;2.00;;;25.30;78.40;;;;;;5043129;28;20087;-83
2021/09/13 13:07:09;;;;;;;3.65;1.75;;;25.40;78.40;;;;;;5031512;28;20060;-84
2021/09/13 13:09:36;;;;;;;3.25;1.92;;;;;;;;;;5040692;28;20029;-83
2021/09/13 13:12:02;;;;;;;2.00;1.50;;;;;;;;;;5042538;28;20022;-83
2021/09/13 13:14:28;;;;;;;2.55;1.65;;;;;;;;;;5037879;28;20043;-84
2021/09/13 13:16:54;;;;;;;4.20;2.05;;;;;;;;;;5038004;28;20034;-83
2021/09/13 13:19:20;;;;;;;2.58;1.77;;;;;;;;;;5049406;28;20091;-81
2021/09/13 13:21:47;;;;;;;2.90;1.80;;;25.40;77.50;;;;;;5039580;28;20033;-83
2021/09/13 13:24:21;;;;;;;3.20;1.67;;;25.50;78.00;;;;;;5033381;28;20026;-84
2021/09/13 13:26:50;;;;;;;2.47;1.60;;;25.30;79.90;;;;;;5039271;28;20017;-82
2021/09/13 13:29:16;;;;;;;3.50;1.80;;;;;;;;;;5039439;28;20021;-83
2021/09/13 13:31:43;;;;;;;3.83;1.75;;;;;;;;;;5038550;28;20037;-85
2021/09/13 13:34:10;;;;;;;2.60;1.80;;;25.90;76.90;;;;;;5036308;28;20124;-84
2021/09/13 13:36:38;;;;;;;4.75;1.90;;;25.90;76.80;;;;;;5039937;28;20021;-82
2021/09/13 13:39:04;;;;;;;5.47;1.92;;;;;;;;;;5039976;28;20029;-85
2021/09/13 13:41:30;;;;;;;3.45;1.90;;;;;;;;;;5039257;28;20558;-82
2021/09/13 13:43:56;;;;;;;3.63;1.75;;;;;;;;;;5038096;28;20059;-84
2021/09/13 13:46:23;;;;;;;5.13;1.77;;;;;;;;;;5036103;28;20037;-83
2021/09/13 13:48:49;;;;;;;6.15;1.80;;;;;;;;;;5039571;28;20105;-83
2021/09/13 13:51:15;;;;;;;3.67;1.90;;;;;;;;;;5038116;28;20052;-81
2021/09/13 13:53:41;;;;;;;3.25;1.88;;;;;;;;;;5033214;28;20041;-84
2021/09/13 13:56:07;;;;;;;4.53;2.20;;;;;;;;;;5034063;28;20025;-83
2021/09/13 13:58:33;;;;;;;3.78;1.83;;;;;;;;;;5034989;28;20087;-84
2021/09/13 14:00:59;;;;;;;3.67;1.65;;;;;;;;;;5036912;28;20085;-84
2021/09/13 14:03:25;;;;;;;2.08;1.50;;;;;;;;;;5036994;28;20022;-85
2021/09/13 14:05:51;;;;;;;3.70;1.92;;;;;;;;;;5037577;28;20032;-82
2021/09/13 14:08:18;;;;;;;2.92;1.70;;;;;;;;;;5037936;28;20030;-85
2021/09/13 14:10:43;;;;;;;3.15;1.80;;;;;;;;;;5039688;28;20034;-82
2021/09/13 14:13:10;;;;;;;3.15;1.85;;;25.60;77.60;;;;;;5036593;28;20055;-83
2021/09/13 14:15:36;;;;;;;3.55;1.70;;;;;;;;;;5036073;28;20044;-82
2021/09/13 14:18:02;;;;;;;2.90;1.48;;;;;;;;;;5040023;28;20060;-84
2021/09/13 14:20:28;;;;;;;4.47;1.73;;;;;;;;;;5040329;28;20021;-83
2021/09/13 14:22:54;;;;;;;3.05;1.70;;;;;;;;;;5038970;28;20092;-85
2021/09/13 14:25:20;;;;;;;4.05;2.50;;;;;;;;;;5039619;28;20032;-84
2021/09/13 14:27:46;;;;;;;2.83;1.88;;;25.50;78.30;;;;;;5039775;28;20037;-83